sensor_id;sensor_type;location;lat;lon;timestamp;temperature;humidity
29777;DHT22;16677;52.224;7.484;2023-03-01T00:01:06;-2.00;1.00
29777;DHT22;16677;52.224;7.484;2023-03-01T00:03:35;-2.00;1.00
29777;DHT22;16677;52.224;7.484;2023-03-01T00:06:02;-2.00;1.00
29777;DHT22;16677;52.224;7.484;2023-03-01T00:08:30;-2.10;9.30
29777;DHT22;16677;52.224;7.484;2023-03-01T00:11:40;-2.10;31.80
29777;DHT22;16677;52.224;7.484;2023-03-01T00:13:51;-2.00;62.50
29777;DHT22;16677;52.224;7.484;2023-03-01T00:16:25;-1.80;99.90
29777;DHT22;16677;52.224;7.484;2023-03-01T00:19:01;-1.90;94.40
29777;DHT22;16677;52.224;7.484;2023-03-01T00:21:29;-1.90;41.50
29777;DHT22;16677;52.224;7.484;2023-03-01T00:23:57;-2.00;73.00
29777;DHT22;16677;52.224;7.484;2023-03-01T00:26:25;-2.00;99.90
29777;DHT22;16677;52.224;7.484;2023-03-01T00:28:54;-2.10;99.90
29777;DHT22;16677;52.224;7.484;2023-03-01T00:31:27;-2.00;99.90
29777;DHT22;16677;52.224;7.484;2023-03-01T00:33:58;-1.90;99.90
29777;DHT22;16677;52.224;7.484;2023-03-01T00:36:29;-1.90;99.90
29777;DHT22;16677;52.224;7.484;2023-03-01T00:38:59;-1.90;99.90
29777;DHT22;16677;52.224;7.484;2023-03-01T00:41:26;-2.00;98.10
29777;DHT22;16677;52.224;7.484;2023-03-01T00:43:55;-2.00;83.50
29777;DHT22;16677;52.224;7.484;2023-03-01T00:46:26;-2.10;99.90
29777;DHT22;16677;52.224;7.484;2023-03-01T00:48:54;-2.20;99.90
29777;DHT22;16677;52.224;7.484;2023-03-01T00:51:27;-2.30;99.90
29777;DHT22;16677;52.224;7.484;2023-03-01T00:53:58;-2.20;99.90
29777;DHT22;16677;52.224;7.484;2023-03-01T00:56:26;-2.20;99.90
29777;DHT22;16677;52.224;7.484;2023-03-01T00:58:55;-2.20;99.90
29777;DHT22;16677;52.224;7.484;2023-03-01T01:01:25;-2.30;99.90
29777;DHT22;16677;52.224;7.484;2023-03-01T01:04:04;-2.30;99.90
29777;DHT22;16677;52.224;7.484;2023-03-01T01:06:39;-2.20;99.90
29777;DHT22;16677;52.224;7.484;2023-03-01T01:09:12;-2.30;99.90
29777;DHT22;16677;52.224;7.484;2023-03-01T01:11:49;-2.20;99.90
29777;DHT22;16677;52.224;7.484;2023-03-01T01:16:52;-2.20;99.90
29777;DHT22;16677;52.224;7.484;2023-03-01T01:19:19;-2.20;99.90
29777;DHT22;16677;52.224;7.484;2023-03-01T01:21:46;-2.00;99.90
29777;DHT22;16677;52.224;7.484;2023-03-01T01:24:15;-2.00;99.90
29777;DHT22;16677;52.224;7.484;2023-03-01T01:26:43;-2.10;99.90
29777;DHT22;16677;52.224;7.484;2023-03-01T01:29:11;-2.10;99.90
29777;DHT22;16677;52.224;7.484;2023-03-01T01:31:40;-2.20;99.90
29777;DHT22;16677;52.224;7.484;2023-03-01T01:34:13;-2.30;99.90
29777;DHT22;16677;52.224;7.484;2023-03-01T01:36:54;-2.30;99.90
29777;DHT22;16677;52.224;7.484;2023-03-01T01:39:22;-2.30;99.90
29777;DHT22;16677;52.224;7.484;2023-03-01T01:41:49;-2.30;99.90
29777;DHT22;16677;52.224;7.484;2023-03-01T01:44:19;-2.30;99.90
29777;DHT22;16677;52.224;7.484;2023-03-01T01:52:29;-2.10;99.90
29777;DHT22;16677;52.224;7.484;2023-03-01T01:55:15;-2.20;99.90
29777;DHT22;16677;52.224;7.484;2023-03-01T01:57:51;-2.40;99.90
29777;DHT22;16677;52.224;7.484;2023-03-01T02:00:23;-2.30;99.90
29777;DHT22;16677;52.224;7.484;2023-03-01T02:03:20;-2.30;99.90
29777;DHT22;16677;52.224;7.484;2023-03-01T02:05:57;-2.40;99.90
29777;DHT22;16677;52.224;7.484;2023-03-01T02:08:32;-2.40;99.90
29777;DHT22;16677;52.224;7.484;2023-03-01T02:11:02;-2.30;99.90
29777;DHT22;16677;52.224;7.484;2023-03-01T02:13:33;-2.30;99.90
29777;DHT22;16677;52.224;7.484;2023-03-01T02:16:07;-2.40;99.90
29777;DHT22;16677;52.224;7.484;2023-03-01T02:18:38;-2.40;99.90
29777;DHT22;16677;52.224;7.484;2023-03-01T02:24:23;-2.30;99.90
29777;DHT22;16677;52.224;7.484;2023-03-01T02:27:17;-2.30;99.90
29777;DHT22;16677;52.224;7.484;2023-03-01T02:29:51;-2.20;99.90
29777;DHT22;16677;52.224;7.484;2023-03-01T02:32:20;-2.10;99.90
29777;DHT22;16677;52.224;7.484;2023-03-01T02:34:55;-2.20;99.90
29777;DHT22;16677;52.224;7.484;2023-03-01T02:37:24;-2.30;99.90
29777;DHT22;16677;52.224;7.484;2023-03-01T02:39:59;-2.40;99.90
29777;DHT22;16677;52.224;7.484;2023-03-01T02:42:33;-2.40;99.90
29777;DHT22;16677;52.224;7.484;2023-03-01T02:45:04;-2.40;99.90
29777;DHT22;16677;52.224;7.484;2023-03-01T02:47:32;-2.60;99.90
29777;DHT22;16677;52.224;7.484;2023-03-01T02:49:59;-2.50;99.90
29777;DHT22;16677;52.224;7.484;2023-03-01T02:55:19;-2.30;99.90
29777;DHT22;16677;52.224;7.484;2023-03-01T02:57:47;-2.20;99.90
29777;DHT22;16677;52.224;7.484;2023-03-01T03:00:28;-2.30;99.90
29777;DHT22;16677;52.224;7.484;2023-03-01T03:03:00;-2.40;99.90
29777;DHT22;16677;52.224;7.484;2023-03-01T03:05:30;-2.20;99.90
29777;DHT22;16677;52.224;7.484;2023-03-01T03:07:59;-2.40;99.90
29777;DHT22;16677;52.224;7.484;2023-03-01T03:10:30;-2.40;99.90
29777;DHT22;16677;52.224;7.484;2023-03-01T03:13:10;-2.50;99.90
29777;DHT22;16677;52.224;7.484;2023-03-01T03:15:39;-2.60;99.90
29777;DHT22;16677;52.224;7.484;2023-03-01T03:18:11;-2.40;99.90
29777;DHT22;16677;52.224;7.484;2023-03-01T03:20:41;-2.40;99.90
29777;DHT22;16677;52.224;7.484;2023-03-01T03:23:09;-2.50;99.90
29777;DHT22;16677;52.224;7.484;2023-03-01T03:25:37;-2.60;99.90
29777;DHT22;16677;52.224;7.484;2023-03-01T03:28:06;-2.90;99.90
29777;DHT22;16677;52.224;7.484;2023-03-01T03:30:39;-2.90;99.90
29777;DHT22;16677;52.224;7.484;2023-03-01T03:33:08;-2.80;1.00
29777;DHT22;16677;52.224;7.484;2023-03-01T03:35:46;-2.80;1.00
29777;DHT22;16677;52.224;7.484;2023-03-01T03:38:18;-2.60;1.00
29777;DHT22;16677;52.224;7.484;2023-03-01T03:41:03;-2.40;1.00
29777;DHT22;16677;52.224;7.484;2023-03-01T03:43:36;-2.30;99.90
29777;DHT22;16677;52.224;7.484;2023-03-01T03:46:04;-2.30;99.90
29777;DHT22;16677;52.224;7.484;2023-03-01T03:48:37;-2.50;99.90
29777;DHT22;16677;52.224;7.484;2023-03-01T03:51:14;-2.50;99.90
29777;DHT22;16677;52.224;7.484;2023-03-01T03:53:44;-2.60;1.00
29777;DHT22;16677;52.224;7.484;2023-03-01T03:56:12;-2.60;1.00
29777;DHT22;16677;52.224;7.484;2023-03-01T03:58:39;-2.50;1.00
29777;DHT22;16677;52.224;7.484;2023-03-01T04:01:07;-2.50;99.90
29777;DHT22;16677;52.224;7.484;2023-03-01T04:03:34;-2.60;1.00
29777;DHT22;16677;52.224;7.484;2023-03-01T04:06:02;-2.60;1.00
29777;DHT22;16677;52.224;7.484;2023-03-01T04:08:31;-2.70;1.00
29777;DHT22;16677;52.224;7.484;2023-03-01T04:11:01;-2.50;1.00
29777;DHT22;16677;52.224;7.484;2023-03-01T04:13:48;-2.50;1.00
29777;DHT22;16677;52.224;7.484;2023-03-01T04:16:16;-2.70;1.00
29777;DHT22;16677;52.224;7.484;2023-03-01T04:18:44;-2.80;1.00
29777;DHT22;16677;52.224;7.484;2023-03-01T04:21:12;-3.00;1.00
29777;DHT22;16677;52.224;7.484;2023-03-01T04:23:41;-3.10;1.00
29777;DHT22;16677;52.224;7.484;2023-03-01T04:26:08;-3.30;1.00
29777;DHT22;16677;52.224;7.484;2023-03-01T04:28:45;-3.40;1.00
29777;DHT22;16677;52.224;7.484;2023-03-01T04:31:18;-3.30;34.30
29777;DHT22;16677;52.224;7.484;2023-03-01T04:33:53;-3.30;99.90
29777;DHT22;16677;52.224;7.484;2023-03-01T04:36:26;-3.10;99.90
29777;DHT22;16677;52.224;7.484;2023-03-01T04:38:55;-3.20;99.90
29777;DHT22;16677;52.224;7.484;2023-03-01T04:41:23;-2.80;99.90
29777;DHT22;16677;52.224;7.484;2023-03-01T04:43:51;-3.10;99.90
29777;DHT22;16677;52.224;7.484;2023-03-01T04:46:22;-3.20;99.90
29777;DHT22;16677;52.224;7.484;2023-03-01T04:48:52;-3.00;99.90
29777;DHT22;16677;52.224;7.484;2023-03-01T04:51:19;-3.10;99.90
29777;DHT22;16677;52.224;7.484;2023-03-01T04:53:50;-3.10;99.90
29777;DHT22;16677;52.224;7.484;2023-03-01T04:56:20;-3.00;99.90
29777;DHT22;16677;52.224;7.484;2023-03-01T04:58:49;-3.10;99.90
29777;DHT22;16677;52.224;7.484;2023-03-01T05:01:23;-3.00;99.90
29777;DHT22;16677;52.224;7.484;2023-03-01T05:03:51;-3.10;99.90
29777;DHT22;16677;52.224;7.484;2023-03-01T05:06:19;-2.90;99.90
29777;DHT22;16677;52.224;7.484;2023-03-01T05:08:47;-3.10;99.30
29777;DHT22;16677;52.224;7.484;2023-03-01T05:11:14;-3.20;96.80
29777;DHT22;16677;52.224;7.484;2023-03-01T05:13:58;-3.40;99.90
29777;DHT22;16677;52.224;7.484;2023-03-01T05:16:35;-3.20;99.90
29777;DHT22;16677;52.224;7.484;2023-03-01T05:19:05;-3.20;99.90
29777;DHT22;16677;52.224;7.484;2023-03-01T05:21:38;-3.10;99.90
29777;DHT22;16677;52.224;7.484;2023-03-01T05:24:26;-3.10;99.90
29777;DHT22;16677;52.224;7.484;2023-03-01T05:27:18;-3.10;99.90
29777;DHT22;16677;52.224;7.484;2023-03-01T05:29:53;-3.10;99.90
29777;DHT22;16677;52.224;7.484;2023-03-01T05:32:20;-3.10;99.90
29777;DHT22;16677;52.224;7.484;2023-03-01T05:34:47;-3.20;99.90
29777;DHT22;16677;52.224;7.484;2023-03-01T05:37:15;-3.20;99.90
29777;DHT22;16677;52.224;7.484;2023-03-01T05:39:42;-3.10;99.90
29777;DHT22;16677;52.224;7.484;2023-03-01T05:42:11;-3.20;99.90
29777;DHT22;16677;52.224;7.484;2023-03-01T05:44:40;-2.90;99.90
29777;DHT22;16677;52.224;7.484;2023-03-01T05:47:09;-3.00;99.90
29777;DHT22;16677;52.224;7.484;2023-03-01T05:49:36;-3.10;99.90
29777;DHT22;16677;52.224;7.484;2023-03-01T05:52:05;-3.10;99.90
29777;DHT22;16677;52.224;7.484;2023-03-01T05:54:36;-3.10;99.90
29777;DHT22;16677;52.224;7.484;2023-03-01T05:57:06;-3.20;99.90
29777;DHT22;16677;52.224;7.484;2023-03-01T05:59:33;-3.30;99.90
29777;DHT22;16677;52.224;7.484;2023-03-01T06:02:01;-3.20;99.90
29777;DHT22;16677;52.224;7.484;2023-03-01T06:04:28;-2.90;99.90
29777;DHT22;16677;52.224;7.484;2023-03-01T06:06:55;-3.00;99.90
29777;DHT22;16677;52.224;7.484;2023-03-01T06:09:23;-3.10;99.90
29777;DHT22;16677;52.224;7.484;2023-03-01T06:11:50;-3.20;99.90
29777;DHT22;16677;52.224;7.484;2023-03-01T06:14:17;-3.30;99.90
29777;DHT22;16677;52.224;7.484;2023-03-01T06:16:57;-3.40;99.90
29777;DHT22;16677;52.224;7.484;2023-03-01T06:27:12;-3.40;99.90
29777;DHT22;16677;52.224;7.484;2023-03-01T06:29:39;-3.40;99.90
29777;DHT22;16677;52.224;7.484;2023-03-01T06:32:08;-3.40;1.00
29777;DHT22;16677;52.224;7.484;2023-03-01T06:34:35;-3.40;1.00
29777;DHT22;16677;52.224;7.484;2023-03-01T06:37:02;-3.40;1.00
29777;DHT22;16677;52.224;7.484;2023-03-01T06:39:32;-3.40;1.00
29777;DHT22;16677;52.224;7.484;2023-03-01T06:42:00;-3.30;1.00
29777;DHT22;16677;52.224;7.484;2023-03-01T06:44:27;-3.40;1.00
29777;DHT22;16677;52.224;7.484;2023-03-01T06:46:54;-3.30;1.00
29777;DHT22;16677;52.224;7.484;2023-03-01T06:49:22;-3.30;1.00
29777;DHT22;16677;52.224;7.484;2023-03-01T06:51:49;-3.20;1.00
29777;DHT22;16677;52.224;7.484;2023-03-01T06:54:16;-3.20;11.10
29777;DHT22;16677;52.224;7.484;2023-03-01T06:56:46;-3.10;1.00
29777;DHT22;16677;52.224;7.484;2023-03-01T06:59:14;-3.10;1.00
29777;DHT22;16677;52.224;7.484;2023-03-01T07:01:42;-3.00;1.00
29777;DHT22;16677;52.224;7.484;2023-03-01T07:04:10;-3.00;1.00
29777;DHT22;16677;52.224;7.484;2023-03-01T07:06:38;-2.80;1.00
29777;DHT22;16677;52.224;7.484;2023-03-01T07:09:05;-2.80;1.00
29777;DHT22;16677;52.224;7.484;2023-03-01T07:11:33;-2.60;1.00
29777;DHT22;16677;52.224;7.484;2023-03-01T07:14:00;-2.60;1.00
29777;DHT22;16677;52.224;7.484;2023-03-01T07:16:27;-2.50;1.00
29777;DHT22;16677;52.224;7.484;2023-03-01T07:18:54;-2.40;99.90
29777;DHT22;16677;52.224;7.484;2023-03-01T07:21:21;-2.40;79.60
29777;DHT22;16677;52.224;7.484;2023-03-01T07:23:48;-2.30;1.00
29777;DHT22;16677;52.224;7.484;2023-03-01T07:26:16;-2.20;1.00
29777;DHT22;16677;52.224;7.484;2023-03-01T07:28:43;-2.10;1.00
29777;DHT22;16677;52.224;7.484;2023-03-01T07:31:10;-1.90;1.00
29777;DHT22;16677;52.224;7.484;2023-03-01T07:33:37;-1.70;1.00
29777;DHT22;16677;52.224;7.484;2023-03-01T07:36:05;-1.60;99.90
29777;DHT22;16677;52.224;7.484;2023-03-01T07:38:33;-1.50;99.90
29777;DHT22;16677;52.224;7.484;2023-03-01T07:41:02;-1.30;99.90
29777;DHT22;16677;52.224;7.484;2023-03-01T07:43:30;-1.20;1.00
29777;DHT22;16677;52.224;7.484;2023-03-01T07:46:01;-1.10;1.00
29777;DHT22;16677;52.224;7.484;2023-03-01T07:48:30;-1.00;1.00
29777;DHT22;16677;52.224;7.484;2023-03-01T07:51:02;-0.70;1.00
29777;DHT22;16677;52.224;7.484;2023-03-01T07:53:31;-0.40;1.00
29777;DHT22;16677;52.224;7.484;2023-03-01T07:56:10;0.00;1.00
29777;DHT22;16677;52.224;7.484;2023-03-01T07:58:39;0.30;99.90
29777;DHT22;16677;52.224;7.484;2023-03-01T08:01:09;0.60;99.90
29777;DHT22;16677;52.224;7.484;2023-03-01T08:03:40;0.90;99.90
29777;DHT22;16677;52.224;7.484;2023-03-01T08:06:10;1.20;99.90
29777;DHT22;16677;52.224;7.484;2023-03-01T08:08:38;1.50;99.90
29777;DHT22;16677;52.224;7.484;2023-03-01T08:11:06;1.80;99.90
29777;DHT22;16677;52.224;7.484;2023-03-01T08:13:34;2.10;99.90
29777;DHT22;16677;52.224;7.484;2023-03-01T08:16:07;2.30;99.90
29777;DHT22;16677;52.224;7.484;2023-03-01T08:18:35;2.60;99.90
29777;DHT22;16677;52.224;7.484;2023-03-01T08:21:10;2.80;99.90
29777;DHT22;16677;52.224;7.484;2023-03-01T08:23:40;2.90;99.90
29777;DHT22;16677;52.224;7.484;2023-03-01T08:26:16;2.90;99.90
29777;DHT22;16677;52.224;7.484;2023-03-01T08:28:46;3.10;99.90
29777;DHT22;16677;52.224;7.484;2023-03-01T08:31:25;3.30;99.90
29777;DHT22;16677;52.224;7.484;2023-03-01T08:33:57;3.40;99.90
29777;DHT22;16677;52.224;7.484;2023-03-01T08:36:37;3.40;99.90
29777;DHT22;16677;52.224;7.484;2023-03-01T08:39:07;3.50;99.90
29777;DHT22;16677;52.224;7.484;2023-03-01T08:41:36;3.40;99.90
29777;DHT22;16677;52.224;7.484;2023-03-01T08:44:03;3.50;99.90
29777;DHT22;16677;52.224;7.484;2023-03-01T08:46:36;3.50;99.90
29777;DHT22;16677;52.224;7.484;2023-03-01T08:49:12;3.60;99.90
29777;DHT22;16677;52.224;7.484;2023-03-01T08:51:43;3.50;99.90
29777;DHT22;16677;52.224;7.484;2023-03-01T08:54:29;3.60;99.90
29777;DHT22;16677;52.224;7.484;2023-03-01T08:56:57;3.70;99.90
29777;DHT22;16677;52.224;7.484;2023-03-01T08:59:26;3.90;99.90
29777;DHT22;16677;52.224;7.484;2023-03-01T09:01:53;4.20;99.90
29777;DHT22;16677;52.224;7.484;2023-03-01T09:04:21;4.30;99.90
29777;DHT22;16677;52.224;7.484;2023-03-01T09:06:48;4.20;99.90
29777;DHT22;16677;52.224;7.484;2023-03-01T09:09:17;4.20;99.90
29777;DHT22;16677;52.224;7.484;2023-03-01T09:11:45;4.20;99.90
29777;DHT22;16677;52.224;7.484;2023-03-01T09:14:14;4.30;99.90
29777;DHT22;16677;52.224;7.484;2023-03-01T09:16:41;4.40;99.90
29777;DHT22;16677;52.224;7.484;2023-03-01T09:19:08;4.40;99.90
29777;DHT22;16677;52.224;7.484;2023-03-01T09:21:35;4.30;99.90
29777;DHT22;16677;52.224;7.484;2023-03-01T09:24:12;4.40;99.90
29777;DHT22;16677;52.224;7.484;2023-03-01T09:26:40;4.40;1.00
29777;DHT22;16677;52.224;7.484;2023-03-01T09:29:07;4.40;1.00
29777;DHT22;16677;52.224;7.484;2023-03-01T09:31:36;4.20;1.00
29777;DHT22;16677;52.224;7.484;2023-03-01T09:34:03;4.10;1.00
29777;DHT22;16677;52.224;7.484;2023-03-01T09:36:31;4.20;1.00
29777;DHT22;16677;52.224;7.484;2023-03-01T09:39:00;4.10;1.00
29777;DHT22;16677;52.224;7.484;2023-03-01T09:47:09;4.20;1.00
29777;DHT22;16677;52.224;7.484;2023-03-01T09:49:40;4.20;1.00
29777;DHT22;16677;52.224;7.484;2023-03-01T09:52:13;4.20;1.00
29777;DHT22;16677;52.224;7.484;2023-03-01T09:54:48;4.30;1.00
29777;DHT22;16677;52.224;7.484;2023-03-01T10:00:26;4.30;1.00
29777;DHT22;16677;52.224;7.484;2023-03-01T10:03:01;4.40;1.00
29777;DHT22;16677;52.224;7.484;2023-03-01T10:11:24;4.50;1.00
29777;DHT22;16677;52.224;7.484;2023-03-01T10:14:03;4.50;1.00
29777;DHT22;16677;52.224;7.484;2023-03-01T10:16:37;4.50;1.00
29777;DHT22;16677;52.224;7.484;2023-03-01T10:22:21;4.60;1.00
29777;DHT22;16677;52.224;7.484;2023-03-01T10:24:51;4.60;1.00
29777;DHT22;16677;52.224;7.484;2023-03-01T10:32:46;4.70;1.00
29777;DHT22;16677;52.224;7.484;2023-03-01T10:37:57;4.90;1.00
29777;DHT22;16677;52.224;7.484;2023-03-01T10:40:24;4.80;1.00
29777;DHT22;16677;52.224;7.484;2023-03-01T10:42:51;4.90;1.00
29777;DHT22;16677;52.224;7.484;2023-03-01T10:45:38;4.80;1.00
29777;DHT22;16677;52.224;7.484;2023-03-01T10:48:25;4.80;1.00
29777;DHT22;16677;52.224;7.484;2023-03-01T10:53:26;5.00;1.00
29777;DHT22;16677;52.224;7.484;2023-03-01T10:56:00;5.00;1.00
29777;DHT22;16677;52.224;7.484;2023-03-01T10:58:33;5.10;1.00
29777;DHT22;16677;52.224;7.484;2023-03-01T11:01:03;5.10;1.00
29777;DHT22;16677;52.224;7.484;2023-03-01T11:06:57;5.40;1.00
29777;DHT22;16677;52.224;7.484;2023-03-01T11:09:26;5.30;1.00
29777;DHT22;16677;52.224;7.484;2023-03-01T11:12:13;5.20;1.00
29777;DHT22;16677;52.224;7.484;2023-03-01T11:14:52;5.30;1.00
29777;DHT22;16677;52.224;7.484;2023-03-01T11:17:27;5.30;1.00
29777;DHT22;16677;52.224;7.484;2023-03-01T11:22:49;5.40;1.00
29777;DHT22;16677;52.224;7.484;2023-03-01T11:25:20;5.50;1.00
29777;DHT22;16677;52.224;7.484;2023-03-01T11:27:51;5.70;1.00
29777;DHT22;16677;52.224;7.484;2023-03-01T11:30:38;5.80;1.00
29777;DHT22;16677;52.224;7.484;2023-03-01T11:35:35;5.90;1.00
29777;DHT22;16677;52.224;7.484;2023-03-01T11:38:19;6.00;1.00
29777;DHT22;16677;52.224;7.484;2023-03-01T12:06:06;6.30;1.00
29777;DHT22;16677;52.224;7.484;2023-03-01T12:16:45;6.50;1.00
29777;DHT22;16677;52.224;7.484;2023-03-01T12:19:34;6.60;1.00
29777;DHT22;16677;52.224;7.484;2023-03-01T12:27:47;6.50;1.00
29777;DHT22;16677;52.224;7.484;2023-03-01T12:39:21;6.60;1.00
29777;DHT22;16677;52.224;7.484;2023-03-01T12:47:55;6.40;1.00
29777;DHT22;16677;52.224;7.484;2023-03-01T12:50:41;6.30;1.00
29777;DHT22;16677;52.224;7.484;2023-03-01T12:53:53;6.40;1.00
29777;DHT22;16677;52.224;7.484;2023-03-01T12:56:07;6.50;1.00
29777;DHT22;16677;52.224;7.484;2023-03-01T12:58:44;6.50;1.00
29777;DHT22;16677;52.224;7.484;2023-03-01T13:09:51;6.80;1.00
29777;DHT22;16677;52.224;7.484;2023-03-01T13:17:50;7.10;99.90
29777;DHT22;16677;52.224;7.484;2023-03-01T13:20:50;7.10;99.90
29777;DHT22;16677;52.224;7.484;2023-03-01T13:26:16;6.90;99.90
29777;DHT22;16677;52.224;7.484;2023-03-01T13:33:55;6.90;1.00
29777;DHT22;16677;52.224;7.484;2023-03-01T13:38:59;6.90;1.00
29777;DHT22;16677;52.224;7.484;2023-03-01T13:44:33;7.20;1.00
29777;DHT22;16677;52.224;7.484;2023-03-01T13:52:38;7.10;1.00
29777;DHT22;16677;52.224;7.484;2023-03-01T13:55:25;7.20;1.00
29777;DHT22;16677;52.224;7.484;2023-03-01T13:58:14;7.10;1.00
29777;DHT22;16677;52.224;7.484;2023-03-01T14:00:42;7.30;1.00
29777;DHT22;16677;52.224;7.484;2023-03-01T14:08:42;7.10;1.00
29777;DHT22;16677;52.224;7.484;2023-03-01T14:20:25;7.10;1.00
29777;DHT22;16677;52.224;7.484;2023-03-01T14:23:02;7.00;1.00
29777;DHT22;16677;52.224;7.484;2023-03-01T14:25:55;7.20;1.00
29777;DHT22;16677;52.224;7.484;2023-03-01T14:28:29;7.10;1.00
29777;DHT22;16677;52.224;7.484;2023-03-01T14:31:01;7.10;1.00
29777;DHT22;16677;52.224;7.484;2023-03-01T14:33:36;6.90;1.00
29777;DHT22;16677;52.224;7.484;2023-03-01T14:36:09;7.00;1.00
29777;DHT22;16677;52.224;7.484;2023-03-01T14:38:45;6.90;1.00
29777;DHT22;16677;52.224;7.484;2023-03-01T14:43:13;6.80;1.00
29777;DHT22;16677;52.224;7.484;2023-03-01T14:45:48;6.90;1.00
29777;DHT22;16677;52.224;7.484;2023-03-01T14:48:16;7.00;1.00
29777;DHT22;16677;52.224;7.484;2023-03-01T14:50:45;7.10;1.00
29777;DHT22;16677;52.224;7.484;2023-03-01T14:53:21;7.10;1.00
29777;DHT22;16677;52.224;7.484;2023-03-01T14:55:56;7.00;1.00
29777;DHT22;16677;52.224;7.484;2023-03-01T14:58:31;7.10;1.00
29777;DHT22;16677;52.224;7.484;2023-03-01T15:01:03;7.10;1.00
29777;DHT22;16677;52.224;7.484;2023-03-01T15:03:36;7.10;1.00
29777;DHT22;16677;52.224;7.484;2023-03-01T15:06:07;7.10;1.00
29777;DHT22;16677;52.224;7.484;2023-03-01T15:08:35;7.00;1.00
29777;DHT22;16677;52.224;7.484;2023-03-01T15:13:52;7.00;1.00
29777;DHT22;16677;52.224;7.484;2023-03-01T15:16:29;6.90;1.00
29777;DHT22;16677;52.224;7.484;2023-03-01T15:19:06;6.90;1.00
29777;DHT22;16677;52.224;7.484;2023-03-01T15:21:35;6.80;1.00
29777;DHT22;16677;52.224;7.484;2023-03-01T15:27:00;6.90;1.00
29777;DHT22;16677;52.224;7.484;2023-03-01T15:29:34;6.90;1.00
29777;DHT22;16677;52.224;7.484;2023-03-01T15:34:58;6.90;1.00
29777;DHT22;16677;52.224;7.484;2023-03-01T15:37:45;6.80;1.00
29777;DHT22;16677;52.224;7.484;2023-03-01T15:40:22;6.80;1.00
29777;DHT22;16677;52.224;7.484;2023-03-01T15:43:21;6.80;1.00
29777;DHT22;16677;52.224;7.484;2023-03-01T15:46:05;6.80;1.00
29777;DHT22;16677;52.224;7.484;2023-03-01T15:48:38;6.70;1.00
29777;DHT22;16677;52.224;7.484;2023-03-01T15:51:12;6.70;1.00
29777;DHT22;16677;52.224;7.484;2023-03-01T15:53:44;6.70;1.00
29777;DHT22;16677;52.224;7.484;2023-03-01T15:56:20;6.70;1.00
29777;DHT22;16677;52.224;7.484;2023-03-01T15:58:47;6.70;1.00
29777;DHT22;16677;52.224;7.484;2023-03-01T16:01:16;6.70;1.00
29777;DHT22;16677;52.224;7.484;2023-03-01T16:03:44;6.60;1.00
29777;DHT22;16677;52.224;7.484;2023-03-01T16:06:12;6.60;1.00
29777;DHT22;16677;52.224;7.484;2023-03-01T16:08:40;6.60;1.00
29777;DHT22;16677;52.224;7.484;2023-03-01T16:11:15;6.70;1.00
29777;DHT22;16677;52.224;7.484;2023-03-01T16:13:45;6.70;1.00
29777;DHT22;16677;52.224;7.484;2023-03-01T16:16:14;6.70;1.00
29777;DHT22;16677;52.224;7.484;2023-03-01T16:18:45;6.70;1.00
29777;DHT22;16677;52.224;7.484;2023-03-01T16:21:23;6.60;1.00
29777;DHT22;16677;52.224;7.484;2023-03-01T16:23:52;6.50;1.00
29777;DHT22;16677;52.224;7.484;2023-03-01T16:28:47;6.50;1.00
29777;DHT22;16677;52.224;7.484;2023-03-01T16:31:19;6.40;1.00
29777;DHT22;16677;52.224;7.484;2023-03-01T16:33:47;6.40;1.00
29777;DHT22;16677;52.224;7.484;2023-03-01T16:36:18;6.30;1.00
29777;DHT22;16677;52.224;7.484;2023-03-01T16:38:46;6.40;1.00
29777;DHT22;16677;52.224;7.484;2023-03-01T16:41:17;6.30;1.00
29777;DHT22;16677;52.224;7.484;2023-03-01T16:43:45;6.20;1.00
29777;DHT22;16677;52.224;7.484;2023-03-01T16:48:44;6.10;1.00
29777;DHT22;16677;52.224;7.484;2023-03-01T16:51:12;6.10;1.00
29777;DHT22;16677;52.224;7.484;2023-03-01T16:53:39;6.00;1.00
29777;DHT22;16677;52.224;7.484;2023-03-01T16:56:10;6.00;1.00
29777;DHT22;16677;52.224;7.484;2023-03-01T16:58:40;5.90;1.00
29777;DHT22;16677;52.224;7.484;2023-03-01T17:01:17;5.80;1.00
29777;DHT22;16677;52.224;7.484;2023-03-01T17:03:47;5.70;1.00
29777;DHT22;16677;52.224;7.484;2023-03-01T17:06:19;5.70;1.00
29777;DHT22;16677;52.224;7.484;2023-03-01T17:08:47;5.50;1.00
29777;DHT22;16677;52.224;7.484;2023-03-01T17:11:15;5.40;1.00
29777;DHT22;16677;52.224;7.484;2023-03-01T17:13:44;5.40;1.00
29777;DHT22;16677;52.224;7.484;2023-03-01T17:16:14;5.30;1.00
29777;DHT22;16677;52.224;7.484;2023-03-01T17:18:43;5.10;1.00
29777;DHT22;16677;52.224;7.484;2023-03-01T17:21:11;5.10;1.00
29777;DHT22;16677;52.224;7.484;2023-03-01T17:23:41;5.00;1.00
29777;DHT22;16677;52.224;7.484;2023-03-01T17:26:10;5.00;1.00
29777;DHT22;16677;52.224;7.484;2023-03-01T17:28:39;4.90;1.00
29777;DHT22;16677;52.224;7.484;2023-03-01T17:31:06;4.80;1.00
29777;DHT22;16677;52.224;7.484;2023-03-01T17:33:34;4.80;1.00
29777;DHT22;16677;52.224;7.484;2023-03-01T17:36:01;4.80;1.00
29777;DHT22;16677;52.224;7.484;2023-03-01T17:38:29;4.70;1.00
29777;DHT22;16677;52.224;7.484;2023-03-01T17:40:58;4.60;1.00
29777;DHT22;16677;52.224;7.484;2023-03-01T17:46:01;4.50;1.00
29777;DHT22;16677;52.224;7.484;2023-03-01T17:48:28;4.40;1.00
29777;DHT22;16677;52.224;7.484;2023-03-01T17:50:55;4.30;1.00
29777;DHT22;16677;52.224;7.484;2023-03-01T17:53:22;4.30;1.00
29777;DHT22;16677;52.224;7.484;2023-03-01T17:55:57;4.30;1.00
29777;DHT22;16677;52.224;7.484;2023-03-01T17:58:26;4.20;1.00
29777;DHT22;16677;52.224;7.484;2023-03-01T18:00:53;4.20;1.00
29777;DHT22;16677;52.224;7.484;2023-03-01T18:03:20;4.00;1.00
29777;DHT22;16677;52.224;7.484;2023-03-01T18:05:47;4.00;1.00
29777;DHT22;16677;52.224;7.484;2023-03-01T18:08:15;3.90;1.00
29777;DHT22;16677;52.224;7.484;2023-03-01T18:10:41;3.80;1.00
29777;DHT22;16677;52.224;7.484;2023-03-01T18:13:08;3.70;1.00
29777;DHT22;16677;52.224;7.484;2023-03-01T18:15:36;3.80;1.00
29777;DHT22;16677;52.224;7.484;2023-03-01T18:18:03;3.70;1.00
29777;DHT22;16677;52.224;7.484;2023-03-01T18:20:30;3.60;1.00
29777;DHT22;16677;52.224;7.484;2023-03-01T18:22:58;3.60;1.00
29777;DHT22;16677;52.224;7.484;2023-03-01T18:25:25;3.50;1.00
29777;DHT22;16677;52.224;7.484;2023-03-01T18:27:52;3.50;1.00
29777;DHT22;16677;52.224;7.484;2023-03-01T18:30:19;3.50;1.00
29777;DHT22;16677;52.224;7.484;2023-03-01T18:32:46;3.40;1.00
29777;DHT22;16677;52.224;7.484;2023-03-01T18:35:14;3.40;1.00
29777;DHT22;16677;52.224;7.484;2023-03-01T18:37:41;3.50;1.00
29777;DHT22;16677;52.224;7.484;2023-03-01T18:40:08;3.40;1.00
29777;DHT22;16677;52.224;7.484;2023-03-01T18:42:35;3.40;1.00
29777;DHT22;16677;52.224;7.484;2023-03-01T18:45:02;3.30;1.00
29777;DHT22;16677;52.224;7.484;2023-03-01T18:47:29;3.20;1.00
29777;DHT22;16677;52.224;7.484;2023-03-01T18:49:56;3.20;1.00
29777;DHT22;16677;52.224;7.484;2023-03-01T18:52:23;3.20;1.00
29777;DHT22;16677;52.224;7.484;2023-03-01T18:54:50;3.00;1.00
29777;DHT22;16677;52.224;7.484;2023-03-01T18:57:17;2.90;7.70
29777;DHT22;16677;52.224;7.484;2023-03-01T18:59:44;2.90;9.30
29777;DHT22;16677;52.224;7.484;2023-03-01T19:02:11;2.80;6.90
29777;DHT22;16677;52.224;7.484;2023-03-01T19:04:38;2.70;21.90
29777;DHT22;16677;52.224;7.484;2023-03-01T19:07:06;2.70;27.40
29777;DHT22;16677;52.224;7.484;2023-03-01T19:09:33;2.70;34.00
29777;DHT22;16677;52.224;7.484;2023-03-01T19:12:02;2.60;40.60